createdAt,value
2019-01-28T00:02:03.838Z,7.33
2019-01-28T00:04:34.283Z,9.73
2019-01-28T00:07:04.616Z,10.33
2019-01-28T00:09:34.920Z,6.67
2019-01-28T00:12:05.290Z,7.53
2019-01-28T00:14:35.766Z,8.07
2019-01-28T00:17:08.494Z,11.00
2019-01-28T00:19:37.974Z,9.50
2019-01-28T00:22:08.478Z,11.40
2019-01-28T00:24:38.800Z,11.13
2019-01-28T00:27:09.124Z,8.57
2019-01-28T00:29:39.424Z,9.73
2019-01-28T00:32:09.979Z,8.07
2019-01-28T00:34:40.226Z,7.23
2019-01-28T00:37:10.466Z,10.67
2019-01-28T00:39:40.876Z,7.80
2019-01-28T00:42:11.267Z,10.63
2019-01-28T00:44:41.680Z,7.53
2019-01-28T00:47:12.609Z,14.43
2019-01-28T00:49:43.176Z,11.57
2019-01-28T00:52:13.426Z,8.10
2019-01-28T00:54:45.431Z,9.03
2019-01-28T00:57:15.863Z,12.03
2019-01-28T00:59:46.157Z,15.10
2019-01-28T01:02:18.673Z,15.00
2019-01-28T01:04:49.010Z,13.03
2019-01-28T01:07:20.637Z,12.60
2019-01-28T01:09:50.838Z,11.70
2019-01-28T01:12:21.216Z,11.40
2019-01-28T01:14:51.588Z,10.97
2019-01-28T01:17:21.991Z,13.23
2019-01-28T01:19:52.538Z,19.43
2019-01-28T01:22:23.088Z,14.23
2019-01-28T01:24:53.392Z,14.70
2019-01-28T01:27:23.780Z,10.77
2019-01-28T01:29:56.436Z,11.37
2019-01-28T01:32:26.836Z,14.33
2019-01-28T01:34:57.442Z,16.30
2019-01-28T01:37:27.770Z,10.70
2019-01-28T01:39:58.128Z,13.97
2019-01-28T01:42:28.618Z,12.77
2019-01-28T01:45:01.462Z,11.97
2019-01-28T01:47:32.000Z,12.67
2019-01-28T01:50:02.324Z,13.37
2019-01-28T01:52:32.750Z,11.97
2019-01-28T01:55:03.172Z,11.67
2019-01-28T01:57:33.526Z,10.57
2019-01-28T02:00:06.800Z,12.43
2019-01-28T02:02:37.210Z,9.37
2019-01-28T02:05:07.769Z,13.63
2019-01-28T02:07:41.211Z,11.10
2019-01-28T02:10:13.983Z,13.73
2019-01-28T02:12:44.404Z,10.60
2019-01-28T02:15:19.204Z,11.50
2019-01-28T02:17:49.599Z,8.80
2019-01-28T02:20:19.954Z,12.30
2019-01-28T02:22:52.446Z,12.57
2019-01-28T02:25:22.832Z,9.57
2019-01-28T02:27:53.178Z,11.27
2019-01-28T02:30:23.514Z,8.70
2019-01-28T02:32:53.948Z,8.60
2019-01-28T02:35:24.339Z,15.13
2019-01-28T02:37:54.568Z,9.67
2019-01-28T02:40:24.908Z,9.67
2019-01-28T02:42:55.372Z,9.33
2019-01-28T02:45:25.818Z,9.07
2019-01-28T02:47:56.086Z,10.57
2019-01-28T02:50:26.536Z,9.83
2019-01-28T02:52:56.947Z,10.83
2019-01-28T02:55:27.247Z,9.87
2019-01-28T02:57:57.532Z,7.90
2019-01-28T03:00:27.987Z,8.90
2019-01-28T03:02:58.382Z,9.80
2019-01-28T03:05:28.815Z,8.67
2019-01-28T03:07:59.243Z,9.77
2019-01-28T03:10:29.821Z,8.30
2019-01-28T03:13:00.103Z,9.30
2019-01-28T03:15:34.097Z,7.73
2019-01-28T03:18:04.703Z,8.67
2019-01-28T03:20:37.885Z,11.37
2019-01-28T03:23:10.045Z,7.90
2019-01-28T03:25:41.680Z,8.10
2019-01-28T03:28:12.096Z,9.00
2019-01-28T03:30:43.059Z,8.83
2019-01-28T03:33:13.392Z,11.00
2019-01-28T03:35:43.749Z,11.43
2019-01-28T03:38:14.099Z,7.03
2019-01-28T03:40:44.429Z,6.53
2019-01-28T03:43:14.728Z,11.83
2019-01-28T03:45:45.200Z,9.50
2019-01-28T03:48:16.801Z,7.63
2019-01-28T03:50:47.436Z,6.53
2019-01-28T03:53:17.907Z,6.87
2019-01-28T03:55:48.364Z,7.43
2019-01-28T03:58:18.963Z,8.27
2019-01-28T04:00:49.456Z,10.00
2019-01-28T04:03:19.837Z,7.00
2019-01-28T04:05:50.126Z,9.30
2019-01-28T04:08:20.466Z,6.33
2019-01-28T04:10:50.771Z,8.00
2019-01-28T04:13:21.139Z,5.63
2019-01-28T04:15:51.567Z,7.60
2019-01-28T04:18:21.934Z,10.00
2019-01-28T04:20:52.259Z,7.40
2019-01-28T04:23:24.113Z,10.63
2019-01-28T04:25:54.720Z,9.90
2019-01-28T04:28:26.681Z,11.60
2019-01-28T04:30:57.029Z,8.60
2019-01-28T04:33:29.423Z,6.97
2019-01-28T04:35:59.827Z,7.73
2019-01-28T04:38:30.101Z,7.87
2019-01-28T04:41:00.357Z,8.53
2019-01-28T04:43:30.683Z,6.60
2019-01-28T04:46:01.028Z,7.60
2019-01-28T04:48:31.454Z,9.07
2019-01-28T04:51:01.717Z,9.03
2019-01-28T04:53:32.137Z,9.80
2019-01-28T04:56:05.163Z,6.50
2019-01-28T04:58:35.630Z,6.73
2019-01-28T05:01:06.031Z,8.43
2019-01-28T05:03:36.339Z,9.87
2019-01-28T05:06:06.783Z,7.87
2019-01-28T05:08:37.159Z,9.80
2019-01-28T05:11:07.597Z,8.83
2019-01-28T05:13:37.941Z,8.90
2019-01-28T05:16:08.447Z,8.23
2019-01-28T05:18:39.067Z,8.10
2019-01-28T05:21:09.491Z,7.93
2019-01-28T05:23:39.845Z,8.03
2019-01-28T05:26:10.197Z,9.13
2019-01-28T05:28:40.604Z,7.37
2019-01-28T05:31:13.493Z,7.30
2019-01-28T05:33:44.085Z,7.03
2019-01-28T05:36:14.629Z,6.93
2019-01-28T05:38:46.136Z,9.27
2019-01-28T05:41:16.338Z,10.30
2019-01-28T05:43:46.627Z,8.27
2019-01-28T05:46:16.959Z,8.50
2019-01-28T05:48:48.465Z,8.13
2019-01-28T05:51:21.373Z,7.13
2019-01-28T05:53:51.581Z,6.93
2019-01-28T05:56:21.956Z,6.97
2019-01-28T05:58:52.266Z,8.90
2019-01-28T06:01:22.641Z,7.37
2019-01-28T06:03:52.936Z,6.13
2019-01-28T06:06:23.326Z,5.27
2019-01-28T06:08:53.739Z,5.67
2019-01-28T06:11:31.924Z,6.07
2019-01-28T06:14:02.775Z,5.13
2019-01-28T06:16:33.004Z,6.77
2019-01-28T06:19:03.148Z,5.83
2019-01-28T06:21:33.500Z,5.20
2019-01-28T06:24:03.763Z,5.87
2019-01-28T06:26:34.043Z,4.47
2019-01-28T06:29:05.429Z,6.47
2019-01-28T06:31:35.674Z,9.13
2019-01-28T06:34:06.054Z,5.77
2019-01-28T06:36:36.284Z,6.83
2019-01-28T06:39:09.963Z,6.43
2019-01-28T06:41:40.146Z,6.73
2019-01-28T06:44:10.216Z,5.03
2019-01-28T06:46:40.323Z,6.20
2019-01-28T06:49:10.567Z,5.73
2019-01-28T06:51:40.850Z,6.87
2019-01-28T06:54:12.261Z,5.50
2019-01-28T06:56:42.566Z,3.90
2019-01-28T06:59:12.930Z,5.77
2019-01-28T07:01:43.235Z,8.83
2019-01-28T07:04:13.392Z,7.50
2019-01-28T07:06:43.710Z,5.17
2019-01-28T07:09:14.252Z,3.97
2019-01-28T07:11:46.054Z,4.30
2019-01-28T07:14:17.486Z,3.97
2019-01-28T07:16:48.909Z,6.47
2019-01-28T07:19:22.261Z,4.77
2019-01-28T07:21:53.322Z,3.50
2019-01-28T07:24:24.145Z,4.07
2019-01-28T07:26:55.207Z,4.13
2019-01-28T07:29:28.048Z,3.60
2019-01-28T07:32:00.114Z,4.30
2019-01-28T07:34:31.272Z,3.90
2019-01-28T07:37:01.923Z,4.67
2019-01-28T07:39:32.601Z,3.90
2019-01-28T07:42:03.269Z,5.63
2019-01-28T07:44:33.862Z,4.90
2019-01-28T07:47:04.706Z,3.90
2019-01-28T07:49:35.440Z,5.57
2019-01-28T07:52:06.485Z,4.23
2019-01-28T07:54:37.299Z,3.83
2019-01-28T07:57:07.984Z,4.03
2019-01-28T07:59:38.824Z,4.87
2019-01-28T08:02:09.130Z,6.23
2019-01-28T08:04:40.248Z,3.57
2019-01-28T08:07:11.123Z,3.27
2019-01-28T08:09:41.718Z,4.10
2019-01-28T08:12:12.574Z,3.57
2019-01-28T08:14:43.476Z,4.20
2019-01-28T08:17:16.002Z,3.33
2019-01-28T08:19:49.693Z,3.83
2019-01-28T08:22:20.371Z,4.47
2019-01-28T08:24:51.012Z,2.70
2019-01-28T08:27:21.757Z,4.80
2019-01-28T08:29:52.730Z,2.93
2019-01-28T08:32:23.794Z,3.90
2019-01-28T08:34:57.630Z,2.80
2019-01-28T08:37:30.932Z,3.63
2019-01-28T08:40:01.725Z,2.73
2019-01-28T08:42:32.714Z,2.33
2019-01-28T08:45:04.594Z,2.90
2019-01-28T08:47:38.873Z,2.70
2019-01-28T08:50:10.356Z,3.87
2019-01-28T08:52:40.980Z,3.10
2019-01-28T08:55:14.732Z,2.40
2019-01-28T08:57:45.562Z,2.73
2019-01-28T09:00:30.739Z,3.30
2019-01-28T09:03:01.718Z,2.10
2019-01-28T09:05:32.776Z,2.80
2019-01-28T09:08:03.462Z,2.40
2019-01-28T09:10:35.480Z,4.27
2019-01-28T09:13:07.947Z,2.83
2019-01-28T09:15:38.834Z,3.40
2019-01-28T09:18:10.834Z,2.23
2019-01-28T09:20:41.400Z,3.17
2019-01-28T09:23:11.940Z,2.13
2019-01-28T09:25:42.646Z,2.07
2019-01-28T09:28:13.228Z,2.10
2019-01-28T09:30:43.772Z,2.83
2019-01-28T09:33:17.165Z,2.53
2019-01-28T09:35:47.720Z,1.73
2019-01-28T09:38:18.322Z,1.40
2019-01-28T09:40:48.746Z,2.60
2019-01-28T09:43:19.352Z,1.83
2019-01-28T09:45:50.043Z,1.80
2019-01-28T09:48:21.292Z,2.13
2019-01-28T09:50:52.088Z,2.80
2019-01-28T09:53:22.868Z,2.00
2019-01-28T09:55:55.608Z,2.33
2019-01-28T09:58:26.951Z,4.20
2019-01-28T10:00:59.106Z,7.93
2019-01-28T10:03:29.742Z,2.27
2019-01-28T10:06:00.408Z,2.83
2019-01-28T10:08:31.140Z,1.57
2019-01-28T10:11:01.520Z,2.33
2019-01-28T10:13:32.218Z,4.13
2019-01-28T10:16:02.868Z,2.90
2019-01-28T10:18:33.856Z,3.67
2019-01-28T10:21:05.251Z,3.80
2019-01-28T10:23:38.295Z,2.93
2019-01-28T10:26:08.891Z,4.00
2019-01-28T10:28:39.734Z,3.67
2019-01-28T10:31:10.788Z,2.00
2019-01-28T10:33:41.274Z,1.87
2019-01-28T10:36:11.823Z,2.43
2019-01-28T10:38:42.566Z,1.53
2019-01-28T10:41:13.207Z,2.57
2019-01-28T10:43:44.109Z,2.47
2019-01-28T10:46:15.763Z,7.37
2019-01-28T10:48:49.752Z,1.93
2019-01-28T10:51:18.672Z,2.40
2019-01-28T10:53:49.447Z,1.33
2019-01-28T10:56:19.986Z,1.90
2019-01-28T10:58:51.289Z,2.07
2019-01-28T11:01:21.988Z,2.10
2019-01-28T11:03:53.047Z,1.13
2019-01-28T11:06:26.347Z,2.10
2019-01-28T11:08:57.205Z,1.20
2019-01-28T11:11:27.878Z,2.77
2019-01-28T11:13:58.966Z,1.33
2019-01-28T11:16:29.752Z,0.90
2019-01-28T11:19:00.840Z,1.03
2019-01-28T11:21:31.626Z,1.27
2019-01-28T11:24:02.935Z,1.00
2019-01-28T11:26:34.460Z,1.80
2019-01-28T11:29:07.058Z,1.13
2019-01-28T11:31:37.746Z,0.70
2019-01-28T11:34:08.805Z,0.90
2019-01-28T11:36:39.557Z,2.47
2019-01-28T11:39:12.121Z,1.60
2019-01-28T11:41:43.155Z,1.27
2019-01-28T11:44:16.587Z,1.37
2019-01-28T11:46:47.336Z,1.00
2019-01-28T11:49:17.996Z,3.23
2019-01-28T11:51:48.471Z,1.17
2019-01-28T11:54:19.371Z,0.80
2019-01-28T11:56:49.917Z,1.10
2019-01-28T11:59:20.599Z,1.73
2019-01-28T12:01:51.365Z,1.00
2019-01-28T12:04:21.821Z,1.03
2019-01-28T12:06:52.341Z,3.07
2019-01-28T12:09:22.949Z,1.93
2019-01-28T12:11:53.276Z,1.87
2019-01-28T12:14:23.762Z,1.20
2019-01-28T12:16:54.403Z,1.80
2019-01-28T12:19:25.127Z,0.70
2019-01-28T12:21:55.795Z,3.13
2019-01-28T12:24:26.233Z,2.10
2019-01-28T12:26:57.864Z,1.43
2019-01-28T12:29:28.824Z,0.90
2019-01-28T12:32:02.281Z,0.80
2019-01-28T12:34:32.889Z,0.97
2019-01-28T12:37:03.570Z,1.00
2019-01-28T12:39:34.273Z,2.17
2019-01-28T12:42:05.824Z,1.27
2019-01-28T12:44:36.319Z,1.03
2019-01-28T12:47:06.913Z,0.70
2019-01-28T12:49:37.616Z,2.20
2019-01-28T12:52:08.203Z,1.00
2019-01-28T12:54:38.785Z,1.10
2019-01-28T12:57:09.356Z,0.70
2019-01-28T12:59:40.135Z,1.10
2019-01-28T13:02:10.839Z,0.80
2019-01-28T13:04:42.301Z,2.53
2019-01-28T13:07:13.601Z,1.20
2019-01-28T13:09:44.391Z,1.37
2019-01-28T13:12:15.243Z,1.80
2019-01-28T13:14:47.717Z,1.50
2019-01-28T13:17:19.415Z,2.00
2019-01-28T13:19:50.239Z,1.30
2019-01-28T13:22:20.991Z,1.60
2019-01-28T13:24:51.587Z,1.60
2019-01-28T13:27:22.774Z,1.40
2019-01-28T13:29:53.553Z,1.83
2019-01-28T13:32:23.947Z,1.40
2019-01-28T13:34:54.334Z,5.13
2019-01-28T13:37:26.434Z,2.93
2019-01-28T13:39:57.114Z,2.40
2019-01-28T13:42:27.639Z,2.63
2019-01-28T13:44:58.726Z,1.53
2019-01-28T13:47:29.303Z,2.53
2019-01-28T13:49:59.795Z,1.40
2019-01-28T13:52:31.597Z,2.13
2019-01-28T13:55:01.966Z,3.00
2019-01-28T13:57:32.498Z,2.80
2019-01-28T14:00:03.394Z,4.97
2019-01-28T14:02:33.942Z,3.77
2019-01-28T14:05:05.117Z,5.33
2019-01-28T14:07:35.569Z,5.37
2019-01-28T14:10:07.564Z,5.43
2019-01-28T14:12:38.040Z,8.83
2019-01-28T14:15:12.379Z,6.80
2019-01-28T14:17:43.022Z,6.63
2019-01-28T14:20:15.454Z,5.63
2019-01-28T14:22:45.986Z,9.37
2019-01-28T14:25:16.942Z,7.53
2019-01-28T14:27:49.647Z,8.60
2019-01-28T14:30:23.857Z,6.90
2019-01-28T14:32:54.238Z,7.57
2019-01-28T14:35:25.001Z,5.67
2019-01-28T14:37:55.613Z,6.60
2019-01-28T14:40:26.268Z,7.03
2019-01-28T14:42:56.741Z,7.67
2019-01-28T14:45:27.256Z,7.53
2019-01-28T14:47:58.760Z,11.00
2019-01-28T14:50:30.894Z,8.10
2019-01-28T14:53:01.377Z,8.90
2019-01-28T14:55:31.982Z,11.03
2019-01-28T14:58:02.630Z,8.93
2019-01-28T15:00:35.598Z,9.17
2019-01-28T15:03:06.323Z,11.80
2019-01-28T15:05:36.888Z,10.93
2019-01-28T15:08:07.568Z,11.53
2019-01-28T15:10:38.040Z,14.27
2019-01-28T15:13:08.725Z,12.73
2019-01-28T15:15:40.091Z,14.53
2019-01-28T15:18:13.334Z,18.00
2019-01-28T15:20:43.834Z,16.27
2019-01-28T15:23:14.459Z,20.60
2019-01-28T15:25:45.420Z,20.67
2019-01-28T15:28:16.104Z,22.07
2019-01-28T15:30:46.849Z,20.27
2019-01-28T15:33:17.323Z,22.33
2019-01-28T15:35:47.998Z,23.93
2019-01-28T15:38:18.433Z,21.83
2019-01-28T15:40:48.743Z,29.20
2019-01-28T15:43:19.213Z,28.70
2019-01-28T15:45:49.468Z,27.47
2019-01-28T15:48:19.846Z,25.47
2019-01-28T15:50:50.175Z,25.93
2019-01-28T15:53:20.468Z,29.50
2019-01-28T15:55:50.738Z,29.40
2019-01-28T15:58:20.981Z,29.03
2019-01-28T16:00:51.190Z,30.87
2019-01-28T16:03:21.955Z,28.30
2019-01-28T16:05:52.177Z,31.03
2019-01-28T16:08:23.532Z,28.17
2019-01-28T16:10:55.332Z,28.20
2019-01-28T16:13:25.536Z,31.67
2019-01-28T16:15:55.784Z,31.27
2019-01-28T16:18:33.961Z,32.77
2019-01-28T16:20:57.794Z,35.03
2019-01-28T16:23:27.894Z,35.60
2019-01-28T16:25:58.176Z,28.90
2019-01-28T16:28:28.387Z,29.83
2019-01-28T16:30:58.602Z,27.50
2019-01-28T16:33:28.854Z,26.10
2019-01-28T16:35:59.108Z,23.67
2019-01-28T16:38:29.469Z,25.50
2019-01-28T16:40:59.647Z,21.67
2019-01-28T16:43:30.160Z,21.53
2019-01-28T16:46:00.434Z,21.77
2019-01-28T16:48:30.676Z,21.97
2019-01-28T16:51:01.075Z,23.80
2019-01-28T16:53:31.310Z,21.03
2019-01-28T16:56:01.638Z,19.87
2019-01-28T16:58:31.935Z,18.37
2019-01-28T17:01:02.186Z,18.20
2019-01-28T17:03:32.542Z,19.40
2019-01-28T17:06:03.022Z,19.30
2019-01-28T17:08:33.366Z,18.93
2019-01-28T17:11:03.633Z,18.33
2019-01-28T17:13:33.926Z,21.17
2019-01-28T17:16:04.596Z,22.27
2019-01-28T17:18:34.835Z,25.77
2019-01-28T17:21:05.189Z,32.70
2019-01-28T17:23:35.402Z,24.47
2019-01-28T17:26:05.690Z,28.67
2019-01-28T17:28:35.873Z,27.97
2019-01-28T17:31:07.071Z,29.80
2019-01-28T17:33:39.063Z,30.43
2019-01-28T17:36:09.277Z,31.23
2019-01-28T17:38:39.565Z,30.77
2019-01-28T17:41:16.182Z,35.23
2019-01-28T17:43:46.766Z,22.97
2019-01-28T17:46:17.095Z,19.87
2019-01-28T17:48:47.446Z,18.57
2019-01-28T17:51:17.802Z,15.30
2019-01-28T17:53:48.162Z,13.77
2019-01-28T17:56:18.447Z,12.30
2019-01-28T17:58:49.732Z,8.67
2019-01-28T18:01:20.155Z,8.90
2019-01-28T18:03:50.438Z,6.27
2019-01-28T18:06:24.776Z,5.67
2019-01-28T18:08:54.973Z,4.80
2019-01-28T18:11:25.321Z,5.93
2019-01-28T18:13:57.019Z,3.90
2019-01-28T18:16:27.256Z,5.60
2019-01-28T18:18:57.615Z,3.87
2019-01-28T18:21:27.947Z,4.33
2019-01-28T18:23:58.474Z,4.63
2019-01-28T18:26:28.802Z,4.80
2019-01-28T18:28:59.325Z,4.00
2019-01-28T18:31:29.777Z,4.50
2019-01-28T18:34:00.289Z,5.20
2019-01-28T18:36:30.803Z,5.23
2019-01-28T18:39:01.079Z,3.97
2019-01-28T18:41:34.382Z,5.03
2019-01-28T18:44:05.151Z,4.07
2019-01-28T18:46:35.497Z,7.13
2019-01-28T18:49:09.655Z,3.97
2019-01-28T18:51:40.013Z,4.60
2019-01-28T18:54:10.787Z,6.03
2019-01-28T18:56:41.139Z,5.70
2019-01-28T18:59:12.579Z,5.77
2019-01-28T19:01:43.430Z,5.53
2019-01-28T19:04:13.868Z,8.03
2019-01-28T19:06:52.876Z,4.13
2019-01-28T19:09:34.275Z,5.07
2019-01-28T19:12:17.887Z,4.47
2019-01-28T19:15:13.721Z,5.50
2019-01-28T19:17:58.049Z,4.83
2019-01-28T19:20:43.042Z,4.23
2019-01-28T19:23:13.432Z,5.73
2019-01-28T19:25:46.695Z,4.60
2019-01-28T19:28:17.183Z,4.90
2019-01-28T19:30:47.743Z,5.80
2019-01-28T19:33:24.590Z,4.23
2019-01-28T19:35:55.337Z,4.53
2019-01-28T19:38:26.063Z,4.30
2019-01-28T19:40:56.419Z,4.53
2019-01-28T19:43:26.782Z,6.07
2019-01-28T19:45:57.285Z,8.10
2019-01-28T19:48:27.619Z,4.57
2019-01-28T19:50:58.063Z,4.90
2019-01-28T19:53:28.577Z,6.63
2019-01-28T19:55:59.051Z,5.57
2019-01-28T19:58:29.557Z,6.33
2019-01-28T20:00:59.983Z,6.67
2019-01-28T20:03:30.428Z,6.43
2019-01-28T20:06:00.813Z,5.57
2019-01-28T20:08:31.203Z,6.30
2019-01-28T20:11:01.531Z,6.17
2019-01-28T20:13:31.867Z,7.93
2019-01-28T20:16:02.473Z,5.93
2019-01-28T20:18:32.967Z,6.37
2019-01-28T20:21:05.242Z,5.80
2019-01-28T20:23:36.024Z,8.20
2019-01-28T20:26:06.339Z,8.93
2019-01-28T20:28:36.695Z,6.17
2019-01-28T20:31:08.257Z,8.00
2019-01-28T20:33:41.495Z,8.67
2019-01-28T20:36:11.951Z,5.53
2019-01-28T20:38:42.289Z,7.23
2019-01-28T20:41:12.839Z,8.13
2019-01-28T20:43:43.339Z,6.40
2019-01-28T20:46:16.863Z,8.50
2019-01-28T20:48:47.143Z,8.00
2019-01-28T20:51:18.772Z,7.37
2019-01-28T20:53:49.312Z,9.03
2019-01-28T20:56:19.758Z,7.53
2019-01-28T20:58:50.191Z,9.30
2019-01-28T21:01:20.698Z,10.57
2019-01-28T21:03:51.061Z,9.27
2019-01-28T21:06:21.451Z,10.80
2019-01-28T21:08:52.883Z,7.20
2019-01-28T21:11:23.559Z,7.57
2019-01-28T21:13:53.895Z,9.20
2019-01-28T21:16:24.369Z,8.60
2019-01-28T21:18:54.755Z,13.30
2019-01-28T21:21:25.070Z,6.83
2019-01-28T21:23:55.463Z,11.60
2019-01-28T21:26:26.095Z,9.47
2019-01-28T21:28:56.535Z,11.10
2019-01-28T21:31:27.117Z,10.10
2019-01-28T21:33:57.683Z,11.17
2019-01-28T21:36:45.621Z,11.87
2019-01-28T21:39:16.879Z,8.50
2019-01-28T21:41:47.284Z,11.50
2019-01-28T21:44:17.716Z,17.07
2019-01-28T21:46:48.953Z,11.07
2019-01-28T21:49:19.402Z,10.40
2019-01-28T21:51:50.879Z,12.07
2019-01-28T21:54:21.275Z,8.13
2019-01-28T21:56:51.714Z,9.67
2019-01-28T21:59:22.052Z,7.73
2019-01-28T22:01:53.590Z,9.73
2019-01-28T22:04:23.938Z,8.30
2019-01-28T22:06:54.468Z,10.77
2019-01-28T22:09:24.884Z,8.03
2019-01-28T22:11:55.200Z,11.93
2019-01-28T22:14:25.519Z,10.50
2019-01-28T22:16:55.960Z,9.43
2019-01-28T22:19:26.254Z,11.20
2019-01-28T22:21:59.284Z,8.57
2019-01-28T22:24:28.629Z,8.87
2019-01-28T22:26:58.955Z,12.20
2019-01-28T22:29:29.436Z,9.80
2019-01-28T22:32:00.141Z,10.13
2019-01-28T22:34:30.817Z,13.37
2019-01-28T22:37:01.280Z,10.53
2019-01-28T22:39:31.590Z,11.70
2019-01-28T22:42:01.944Z,10.40
2019-01-28T22:44:33.634Z,12.40
2019-01-28T22:47:03.968Z,7.30
2019-01-28T22:49:34.434Z,6.77
2019-01-28T22:52:07.906Z,8.40
2019-01-28T22:54:36.810Z,10.63
2019-01-28T22:57:07.156Z,5.07
2019-01-28T22:59:37.786Z,9.83
2019-01-28T23:02:08.830Z,6.70
2019-01-28T23:04:39.181Z,6.57
2019-01-28T23:07:09.470Z,11.77
2019-01-28T23:09:39.699Z,6.53
2019-01-28T23:12:10.012Z,10.27
2019-01-28T23:14:40.418Z,8.50
2019-01-28T23:17:10.854Z,9.00
2019-01-28T23:19:41.099Z,6.17
2019-01-28T23:22:16.498Z,7.07
2019-01-28T23:24:43.640Z,9.67
2019-01-28T23:27:14.028Z,12.73
2019-01-28T23:29:44.564Z,9.57
2019-01-28T23:32:15.027Z,11.20
2019-01-28T23:34:45.404Z,8.37
2019-01-28T23:37:15.878Z,10.27
2019-01-28T23:39:46.126Z,8.40
2019-01-28T23:42:16.812Z,9.13
2019-01-28T23:44:47.486Z,8.87
2019-01-28T23:47:19.080Z,16.60
2019-01-28T23:49:49.542Z,7.67
2019-01-28T23:52:24.737Z,7.03
2019-01-28T23:54:54.831Z,8.90
2019-01-28T23:57:25.500Z,7.43
2019-01-28T23:59:57.451Z,9.23
